Sparkill, NY (10976)

3:14 AM EST on December 26, 2014 (GMT -0500)
APRSWXNET Sparkill NY US | Change Station
CLOSE
Current Station
Personal Weather Station
Location: Sparkill, NY
Elevation: 72 ft
Nearby Weather Stations

Elev 72 ft 41.03 °N, 73.93 °W | Updated 39 minutes ago

Clear
Clear
37.0 °F
Feels Like 37.0 °F
N
0.0
Wind Variable Wind from North
Gusts 0.0 mph

Today
High -- | Low -- °F
--% Chance of Precip.
Yesterday
High -- | Low -- °F
Precip. -- in
7:19 AM 4:33 PM
Waxing Crescent, 23% visible
Pressure 30.14 in
Visibility 10.0 miles
Clouds Clear
Dew Point 32.0 °F
Humidity 82%
Rainfall 0.03 in
Snow Depth Not available.
UV 0 out of 12
Pollen .10 out of 12
Air Quality Not available.
Flu Activity Not available.
METAR KHPN 260756Z 27007KT 10SM CLR 04/M03 A3012 RMK AO2 SLP205 T00391028

More Conditions Fewer Conditions

Pressure 30.14 in
Visibility 10.0 miles
Clouds Clear
Dew Point 32.0 °F
Humidity 82%
Rainfall 0.03 in
Snow Depth Not available.
UV 0 out of 12
Pollen .10 out of 12
Air Quality Not available.
Flu Activity Not available.
METAR KHPN 260756Z 27007KT 10SM CLR 04/M03 A3012 RMK AO2 SLP205 T00391028

More Conditions Fewer Conditions

10-Day Weather Forecast

Almanac

Astronomy

Dec. 26, 2014 Rise Set
Actual Time
Civil Twilight
Nautical Twilight
Astronomical Twilight
Moon
Length of Visible Light
Length of Day
Tomorrow will be .
, % of the Moon is Illuminated

Today's Extremes

State Highs State Lows

Community

WunderPhotos

Upload Photos

1,780,570 photos uploaded!

WunderBlogs® & News

Nearby

Air Quality

  Air Quality AQ Index Pollutant
Not available.

Snow Depth

Station Depth Elevation

Earthquake Activity

City Distance Mag. Time & Date
Minimum magnitude displayed is 2.5.

Coastal Water Temperatures

Place Temperature

Nearby Weather Stations